createdAt,value
2022-10-01T00:00:56.248Z,3.25
2022-10-01T00:03:25.194Z,3.50
2022-10-01T00:05:58.850Z,3.20
2022-10-01T00:10:51.603Z,3.30
2022-10-01T00:13:19.404Z,3.40
2022-10-01T00:15:46.142Z,3.63
2022-10-01T00:18:12.622Z,2.65
2022-10-01T00:20:39.468Z,3.40
2022-10-01T00:23:05.983Z,4.03
2022-10-01T00:25:32.431Z,3.28
2022-10-01T00:27:58.936Z,3.72
2022-10-01T00:30:26.795Z,3.25
2022-10-01T00:32:53.445Z,3.55
2022-10-01T00:35:19.926Z,3.33
2022-10-01T00:37:47.270Z,3.67
2022-10-01T00:40:13.750Z,3.85
2022-10-01T00:42:40.137Z,4.10
2022-10-01T00:45:07.263Z,3.80
2022-10-01T00:47:38.438Z,4.05
2022-10-01T00:50:09.665Z,3.25
2022-10-01T00:52:40.539Z,3.47
2022-10-01T00:55:10.462Z,3.38
2022-10-01T00:57:37.295Z,3.53
2022-10-01T01:00:06.525Z,3.97
2022-10-01T01:02:33.189Z,3.42
2022-10-01T01:05:01.258Z,3.92
2022-10-01T01:07:29.210Z,4.50
2022-10-01T01:09:55.946Z,4.05
2022-10-01T01:12:44.589Z,3.53
2022-10-01T01:15:17.260Z,3.92
2022-10-01T01:17:52.744Z,4.30
2022-10-01T01:20:40.130Z,3.80
2022-10-01T01:23:25.674Z,4.00
2022-10-01T01:26:02.244Z,4.38
2022-10-01T01:28:32.466Z,4.53
2022-10-01T01:31:04.581Z,4.07
2022-10-01T01:33:34.756Z,4.18
2022-10-01T01:36:05.871Z,3.75
2022-10-01T01:38:36.321Z,3.03
2022-10-01T01:41:04.949Z,3.80
2022-10-01T01:43:36.856Z,2.97
2022-10-01T01:46:05.974Z,3.20
2022-10-01T01:48:34.917Z,3.60
2022-10-01T01:51:08.527Z,3.38
2022-10-01T01:53:35.461Z,3.30
2022-10-01T01:56:02.083Z,3.22
2022-10-01T01:58:29.029Z,3.53
2022-10-01T02:00:56.766Z,2.60
2022-10-01T02:03:26.572Z,3.97
2022-10-01T02:06:03.548Z,2.85
2022-10-01T02:08:38.897Z,2.97
2022-10-01T02:11:25.550Z,2.65
2022-10-01T02:14:03.660Z,2.65
2022-10-01T02:16:41.517Z,2.53
2022-10-01T02:19:17.892Z,3.17
2022-10-01T02:21:53.022Z,2.88
2022-10-01T02:24:27.493Z,3.25
2022-10-01T02:26:55.732Z,2.90
2022-10-01T02:29:23.706Z,3.22
2022-10-01T02:31:54.075Z,3.10
2022-10-01T02:34:24.641Z,2.60
2022-10-01T02:36:52.557Z,3.03
2022-10-01T02:39:22.022Z,2.50
2022-10-01T02:41:51.453Z,2.97
2022-10-01T02:44:23.684Z,2.80
2022-10-01T02:46:57.259Z,2.97
2022-10-01T02:52:07.978Z,3.10
2022-10-01T02:54:38.272Z,3.03
2022-10-01T02:57:04.692Z,2.95
2022-10-01T02:59:31.175Z,2.50
2022-10-01T03:01:59.112Z,3.25
2022-10-01T03:04:25.706Z,3.10
2022-10-01T03:06:52.154Z,2.95
2022-10-01T03:09:18.564Z,3.30
2022-10-01T03:11:44.963Z,2.90
2022-10-01T03:14:11.408Z,2.90
2022-10-01T03:16:37.977Z,3.53
2022-10-01T03:19:05.753Z,4.18
2022-10-01T03:21:32.473Z,2.78
2022-10-01T03:23:59.089Z,3.38
2022-10-01T03:26:25.503Z,3.25
2022-10-01T03:28:52.028Z,3.92
2022-10-01T03:31:18.497Z,3.58
2022-10-01T03:33:45.042Z,3.22
2022-10-01T03:36:12.842Z,3.38
2022-10-01T03:38:39.320Z,3.30
2022-10-01T03:41:06.355Z,3.30
2022-10-01T03:43:32.781Z,3.13
2022-10-01T03:45:59.286Z,3.20
2022-10-01T03:48:25.791Z,3.28
2022-10-01T03:50:53.708Z,2.70
2022-10-01T03:53:21.873Z,3.10
2022-10-01T03:55:48.296Z,2.70
2022-10-01T03:58:14.802Z,3.78
2022-10-01T04:00:41.215Z,3.08
2022-10-01T04:03:07.729Z,2.95
2022-10-01T04:05:34.335Z,2.40
2022-10-01T04:08:01.173Z,3.38
2022-10-01T04:10:29.067Z,2.80
2022-10-01T04:12:55.464Z,3.10
2022-10-01T04:15:22.030Z,3.45
2022-10-01T04:17:48.640Z,3.67
2022-10-01T04:20:15.287Z,2.65
2022-10-01T04:22:42.511Z,2.92
2022-10-01T04:25:10.761Z,3.45
2022-10-01T04:27:38.634Z,2.33
2022-10-01T04:30:07.009Z,3.10
2022-10-01T04:32:33.532Z,3.67
2022-10-01T04:35:00.033Z,3.08
2022-10-01T04:37:26.488Z,3.55
2022-10-01T04:39:53.007Z,3.53
2022-10-01T04:42:19.760Z,3.40
2022-10-01T04:44:47.988Z,3.13
2022-10-01T04:47:14.673Z,3.15
2022-10-01T04:49:41.076Z,2.95
2022-10-01T04:52:07.687Z,3.83
2022-10-01T04:54:34.074Z,3.20
2022-10-01T04:57:00.491Z,3.45
2022-10-01T04:59:26.906Z,3.53
2022-10-01T05:01:57.185Z,3.83
2022-10-01T05:04:23.798Z,3.60
2022-10-01T05:06:50.275Z,3.47
2022-10-01T05:09:16.695Z,4.05
2022-10-01T05:11:43.143Z,3.90
2022-10-01T05:14:11.141Z,4.25
2022-10-01T05:16:37.683Z,3.97
2022-10-01T05:19:05.632Z,4.30
2022-10-01T05:21:32.431Z,4.60
2022-10-01T05:23:59.275Z,4.40
2022-10-01T05:26:25.691Z,6.63
2022-10-01T05:28:52.134Z,5.90
2022-10-01T05:31:18.551Z,4.70
2022-10-01T05:33:45.036Z,4.93
2022-10-01T05:36:12.828Z,4.43
2022-10-01T05:38:39.322Z,4.78
2022-10-01T05:41:06.217Z,4.32
2022-10-01T05:43:32.658Z,4.20
2022-10-01T05:46:00.664Z,5.20
2022-10-01T05:48:27.167Z,3.85
2022-10-01T05:50:53.772Z,4.93
2022-10-01T05:53:21.550Z,4.72
2022-10-01T05:55:47.990Z,3.67
2022-10-01T05:58:14.469Z,4.43
2022-10-01T06:00:42.255Z,4.78
2022-10-01T06:03:11.125Z,4.10
2022-10-01T06:05:37.783Z,4.40
2022-10-01T06:08:05.769Z,4.88
2022-10-01T06:10:33.615Z,4.85
2022-10-01T06:13:00.647Z,4.28
2022-10-01T06:15:27.566Z,3.60
2022-10-01T06:17:54.003Z,4.30
2022-10-01T06:20:20.522Z,4.50
2022-10-01T06:22:54.306Z,4.32
2022-10-01T06:27:52.575Z,4.05
2022-10-01T06:30:19.094Z,4.35
2022-10-01T06:32:45.513Z,3.78
2022-10-01T06:35:11.929Z,4.47
2022-10-01T06:37:38.551Z,4.30
2022-10-01T06:40:06.292Z,3.95
2022-10-01T06:42:33.088Z,4.05
2022-10-01T06:45:00.796Z,4.07
2022-10-01T06:47:27.239Z,3.22
2022-10-01T06:49:53.784Z,3.40
2022-10-01T06:52:20.216Z,3.47
2022-10-01T06:54:46.627Z,3.67
2022-10-01T06:57:13.105Z,3.28
2022-10-01T06:59:39.535Z,3.50
2022-10-01T07:02:11.070Z,3.42
2022-10-01T07:04:37.720Z,3.25
2022-10-01T07:07:04.138Z,3.95
2022-10-01T07:09:30.534Z,3.30
2022-10-01T07:11:56.963Z,3.60
2022-10-01T07:14:23.512Z,3.15
2022-10-01T07:16:49.949Z,3.38
2022-10-01T07:19:17.951Z,3.30
2022-10-01T07:21:47.384Z,2.85
2022-10-01T07:24:13.819Z,3.55
2022-10-01T07:26:40.267Z,3.00
2022-10-01T07:29:06.673Z,2.83
2022-10-01T07:31:33.407Z,3.00
2022-10-01T07:34:00.069Z,3.10
2022-10-01T07:36:27.880Z,2.97
2022-10-01T07:38:54.359Z,2.65
2022-10-01T07:41:20.756Z,2.97
2022-10-01T07:43:47.225Z,3.03
2022-10-01T07:46:13.699Z,3.42
2022-10-01T07:48:40.221Z,4.30
2022-10-01T07:51:06.898Z,4.55
2022-10-01T07:53:34.639Z,3.25
2022-10-01T07:56:01.500Z,2.22
2022-10-01T07:58:27.961Z,2.75
2022-10-01T08:00:54.386Z,2.15
2022-10-01T08:03:21.017Z,2.70
2022-10-01T08:05:47.406Z,2.28
2022-10-01T08:08:13.783Z,2.80
2022-10-01T08:10:41.581Z,2.72
2022-10-01T08:13:11.192Z,5.57
2022-10-01T08:15:37.611Z,3.20
2022-10-01T08:18:04.839Z,2.25
2022-10-01T08:20:45.628Z,2.10
2022-10-01T08:23:14.378Z,2.22
2022-10-01T08:25:43.255Z,2.47
2022-10-01T08:28:11.170Z,1.90
2022-10-01T08:30:39.744Z,2.00
2022-10-01T08:33:07.246Z,2.53
2022-10-01T08:35:33.732Z,2.22
2022-10-01T08:38:04.515Z,2.60
2022-10-01T08:40:33.197Z,1.70
2022-10-01T08:43:04.057Z,1.80
2022-10-01T08:45:37.632Z,2.15
2022-10-01T08:50:40.752Z,2.40
2022-10-01T08:53:14.112Z,1.90
2022-10-01T08:55:41.165Z,2.05
2022-10-01T08:58:14.624Z,2.10
2022-10-01T09:00:45.127Z,1.75
2022-10-01T09:03:13.608Z,2.30
2022-10-01T09:05:55.511Z,2.15
2022-10-01T09:08:32.579Z,3.15
2022-10-01T09:11:04.438Z,2.80
2022-10-01T09:13:53.757Z,2.00
2022-10-01T09:16:25.232Z,1.77
2022-10-01T09:19:03.796Z,1.42
2022-10-01T09:21:46.469Z,2.17
2022-10-01T09:24:14.804Z,2.00
2022-10-01T09:26:45.767Z,1.95
2022-10-01T09:29:17.556Z,1.70
2022-10-01T09:31:48.724Z,1.52
2022-10-01T09:34:16.568Z,1.70
2022-10-01T09:36:56.289Z,1.55
2022-10-01T09:39:29.656Z,1.80
2022-10-01T09:41:56.110Z,1.73
2022-10-01T09:44:27.725Z,1.73
2022-10-01T09:46:54.834Z,1.40
2022-10-01T09:49:29.281Z,1.55
2022-10-01T09:52:01.158Z,1.65
2022-10-01T09:54:32.404Z,1.58
2022-10-01T09:57:05.817Z,2.03
2022-10-01T09:59:38.425Z,2.35
2022-10-01T10:02:15.014Z,2.13
2022-10-01T10:04:41.581Z,1.77
2022-10-01T10:07:08.183Z,1.52
2022-10-01T10:09:35.956Z,2.03
2022-10-01T10:12:03.020Z,2.85
2022-10-01T10:14:31.917Z,3.45
2022-10-01T10:17:05.227Z,3.00
2022-10-01T10:19:32.361Z,3.15
2022-10-01T10:22:11.424Z,3.35
2022-10-01T10:24:38.144Z,2.60
2022-10-01T10:27:18.013Z,2.58
2022-10-01T10:29:44.438Z,2.05
2022-10-01T10:32:19.054Z,1.80
2022-10-01T10:34:45.976Z,1.70
2022-10-01T10:37:15.572Z,2.47
2022-10-01T10:39:46.318Z,2.20
2022-10-01T10:42:13.828Z,2.80
2022-10-01T10:44:43.686Z,2.15
2022-10-01T10:47:13.532Z,2.63
2022-10-01T10:49:44.803Z,2.72
2022-10-01T10:52:20.047Z,2.70
2022-10-01T10:54:48.211Z,2.35
2022-10-01T10:57:19.089Z,2.47
2022-10-01T10:59:55.527Z,2.67
2022-10-01T11:02:24.712Z,2.40
2022-10-01T11:04:53.239Z,3.10
2022-10-01T11:07:21.433Z,2.95
2022-10-01T11:10:09.010Z,2.85
2022-10-01T11:12:55.531Z,2.95
2022-10-01T11:15:38.570Z,3.03
2022-10-01T11:18:22.412Z,3.03
2022-10-01T11:23:40.496Z,2.67
2022-10-01T11:26:15.803Z,3.08
2022-10-01T11:28:55.703Z,2.70
2022-10-01T11:31:31.543Z,3.55
2022-10-01T11:34:16.168Z,3.80
2022-10-01T11:36:55.487Z,3.50
2022-10-01T11:39:25.250Z,3.60
2022-10-01T11:41:56.067Z,3.92
2022-10-01T11:44:29.266Z,4.05
2022-10-01T11:47:00.665Z,4.25
2022-10-01T11:49:45.711Z,3.88
2022-10-01T11:52:20.369Z,3.75
2022-10-01T11:54:58.519Z,3.58
2022-10-01T11:57:26.877Z,4.20
2022-10-01T11:59:58.963Z,3.95
2022-10-01T12:02:31.322Z,3.10
2022-10-01T12:05:03.940Z,3.60
2022-10-01T12:07:37.280Z,3.97
2022-10-01T12:10:17.854Z,3.63
2022-10-01T12:12:51.534Z,3.60
2022-10-01T12:17:51.307Z,3.80
2022-10-01T12:20:24.758Z,3.88
2022-10-01T12:22:53.637Z,3.58
2022-10-01T12:25:26.239Z,3.53
2022-10-01T12:28:00.098Z,3.80
2022-10-01T12:30:31.374Z,3.80
2022-10-01T12:33:09.275Z,3.45
2022-10-01T12:35:54.522Z,3.35
2022-10-01T12:38:32.445Z,4.07
2022-10-01T12:41:09.296Z,3.45
2022-10-01T12:44:00.169Z,3.60
2022-10-01T12:46:34.976Z,3.40
2022-10-01T12:49:14.144Z,3.67
2022-10-01T12:51:44.480Z,3.03
2022-10-01T12:54:29.957Z,3.58
2022-10-01T12:57:02.880Z,3.20
2022-10-01T12:59:40.406Z,3.10
2022-10-01T13:02:23.068Z,3.13
2022-10-01T13:05:12.740Z,3.30
2022-10-01T13:07:51.236Z,3.58
2022-10-01T13:10:34.791Z,2.97
2022-10-01T13:13:05.430Z,2.80
2022-10-01T13:15:35.636Z,3.40
2022-10-01T13:18:13.032Z,3.15
2022-10-01T13:20:46.949Z,3.83
2022-10-01T13:23:23.805Z,3.03
2022-10-01T13:26:01.593Z,3.00
2022-10-01T13:28:49.544Z,3.42
2022-10-01T13:31:17.340Z,3.28
2022-10-01T13:33:53.771Z,2.53
2022-10-01T13:36:29.143Z,2.60
2022-10-01T13:38:57.001Z,3.25
2022-10-01T13:41:27.640Z,2.75
2022-10-01T13:43:57.104Z,2.90
2022-10-01T13:46:26.657Z,3.50
2022-10-01T13:48:53.566Z,3.33
2022-10-01T13:51:20.126Z,3.60
2022-10-01T13:53:49.567Z,4.35
2022-10-01T13:56:28.982Z,3.85
2022-10-01T13:58:55.827Z,3.47
2022-10-01T14:01:29.104Z,3.30
2022-10-01T14:04:01.982Z,3.95
2022-10-01T14:06:30.705Z,4.00
2022-10-01T14:09:05.267Z,2.80
2022-10-01T14:11:35.844Z,1.30
2022-10-01T14:14:09.801Z,0.93
2022-10-01T14:16:40.181Z,1.45
2022-10-01T14:19:08.053Z,0.55
2022-10-01T14:21:55.226Z,0.57
2022-10-01T14:24:32.607Z,0.98
2022-10-01T14:27:10.719Z,0.95
2022-10-01T14:29:49.320Z,0.73
2022-10-01T14:32:26.782Z,0.60
2022-10-01T14:35:11.343Z,0.45
2022-10-01T14:37:38.694Z,0.85
2022-10-01T14:40:15.300Z,1.42
2022-10-01T14:42:43.135Z,1.15
2022-10-01T14:45:17.603Z,1.20
2022-10-01T14:47:44.054Z,1.30
2022-10-01T14:50:12.260Z,1.15
2022-10-01T14:52:44.156Z,1.70
2022-10-01T14:55:13.980Z,1.40
2022-10-01T14:57:45.151Z,1.30
2022-10-01T15:00:16.367Z,1.70
2022-10-01T15:02:47.564Z,1.10
2022-10-01T15:05:23.471Z,1.33
2022-10-01T15:07:50.424Z,1.10
2022-10-01T15:10:18.890Z,1.85
2022-10-01T15:12:49.420Z,2.17
2022-10-01T15:15:19.134Z,1.63
2022-10-01T15:17:46.438Z,2.20
2022-10-01T15:20:13.373Z,2.58
2022-10-01T15:22:40.455Z,2.80
2022-10-01T15:25:07.508Z,2.38
2022-10-01T15:27:34.067Z,2.03
2022-10-01T15:30:02.036Z,1.50
2022-10-01T15:32:28.864Z,1.88
2022-10-01T15:34:57.689Z,1.63
2022-10-01T15:37:29.572Z,1.50
2022-10-01T15:39:56.936Z,1.63
2022-10-01T15:42:25.873Z,1.75
2022-10-01T15:45:20.531Z,2.10
2022-10-01T15:47:48.898Z,1.60
2022-10-01T15:50:20.948Z,2.17
2022-10-01T15:52:53.152Z,1.90
2022-10-01T15:55:23.599Z,2.10
2022-10-01T15:57:55.483Z,2.10
2022-10-01T16:00:25.707Z,2.35
2022-10-01T16:02:53.400Z,2.20
2022-10-01T16:05:22.762Z,2.88
2022-10-01T16:07:53.556Z,1.58
2022-10-01T16:10:34.018Z,2.20
2022-10-01T16:13:28.074Z,2.53
2022-10-01T16:16:07.148Z,2.05
2022-10-01T16:18:33.682Z,2.58
2022-10-01T16:21:00.289Z,2.53
2022-10-01T16:23:34.352Z,2.60
2022-10-01T16:26:01.678Z,2.13
2022-10-01T16:28:32.314Z,2.60
2022-10-01T16:30:59.438Z,2.63
2022-10-01T16:33:25.874Z,2.33
2022-10-01T16:36:06.771Z,2.40
2022-10-01T16:38:33.200Z,2.78
2022-10-01T16:40:59.738Z,3.00
2022-10-01T16:43:26.340Z,2.28
2022-10-01T16:45:54.163Z,2.95
2022-10-01T16:48:21.613Z,3.10
2022-10-01T16:50:48.348Z,2.45
2022-10-01T16:53:17.012Z,3.08
2022-10-01T16:55:44.296Z,2.90
2022-10-01T16:58:11.308Z,2.70
2022-10-01T17:00:37.799Z,3.20
2022-10-01T17:03:07.260Z,3.05
2022-10-01T17:05:35.964Z,2.17
2022-10-01T17:08:03.570Z,3.05
2022-10-01T17:10:31.867Z,2.40
2022-10-01T17:12:58.899Z,3.55
2022-10-01T17:15:27.463Z,2.63
2022-10-01T17:17:54.687Z,3.00
2022-10-01T17:20:24.232Z,2.15
2022-10-01T17:22:51.155Z,2.70
2022-10-01T17:25:20.248Z,2.15
2022-10-01T17:27:47.159Z,2.30
2022-10-01T17:30:13.859Z,2.72
2022-10-01T17:32:40.856Z,2.22
2022-10-01T17:35:07.777Z,2.58
2022-10-01T17:37:35.699Z,2.20
2022-10-01T17:40:02.717Z,2.60
2022-10-01T17:42:30.521Z,2.75
2022-10-01T17:44:56.976Z,1.88
2022-10-01T17:47:23.637Z,2.40
2022-10-01T17:49:50.081Z,2.60
2022-10-01T17:52:17.326Z,2.60
2022-10-01T17:54:45.359Z,2.63
2022-10-01T17:57:12.562Z,3.47
2022-10-01T17:59:39.353Z,3.20
2022-10-01T18:02:23.583Z,3.47
2022-10-01T18:04:53.477Z,2.58
2022-10-01T18:07:19.913Z,3.47
2022-10-01T18:09:47.637Z,3.17
2022-10-01T18:12:14.553Z,2.70
2022-10-01T18:14:40.981Z,3.20
2022-10-01T18:17:07.697Z,2.97
2022-10-01T18:22:20.809Z,3.13
2022-10-01T18:24:48.851Z,2.90
2022-10-01T18:27:15.308Z,3.58
2022-10-01T18:29:41.784Z,2.42
2022-10-01T18:32:15.721Z,2.28
2022-10-01T18:34:47.271Z,1.88
2022-10-01T18:37:24.433Z,1.90
2022-10-01T18:39:58.865Z,2.35
2022-10-01T18:42:31.245Z,1.85
2022-10-01T18:45:01.159Z,1.77
2022-10-01T18:47:39.016Z,1.98
2022-10-01T18:50:32.060Z,2.17
2022-10-01T18:53:15.142Z,2.10
2022-10-01T18:56:02.973Z,2.00
2022-10-01T18:58:45.608Z,2.90
2022-10-01T19:01:24.319Z,2.40
2022-10-01T19:04:03.136Z,2.00
2022-10-01T19:06:46.991Z,2.78
2022-10-01T19:09:32.007Z,2.13
2022-10-01T19:12:14.474Z,2.88
2022-10-01T19:14:50.068Z,3.50
2022-10-01T19:17:31.770Z,2.63
2022-10-01T19:20:09.885Z,3.75
2022-10-01T19:22:58.374Z,2.65
2022-10-01T19:25:30.758Z,2.80
2022-10-01T19:28:10.585Z,3.00
2022-10-01T19:30:50.559Z,2.90
2022-10-01T19:33:20.873Z,3.15
2022-10-01T19:35:51.323Z,3.10
2022-10-01T19:38:24.883Z,3.80
2022-10-01T19:40:55.684Z,4.15
2022-10-01T19:43:29.441Z,4.05
2022-10-01T19:46:00.922Z,3.70
2022-10-01T19:48:35.238Z,3.70
2022-10-01T19:51:07.632Z,3.10
2022-10-01T19:53:35.556Z,3.13
2022-10-01T19:56:03.043Z,3.17
2022-10-01T19:58:32.475Z,3.53
2022-10-01T20:01:01.619Z,3.42
2022-10-01T20:03:36.387Z,3.20
2022-10-01T20:06:05.761Z,3.97
2022-10-01T20:08:35.194Z,2.92
2022-10-01T20:11:10.679Z,3.72
2022-10-01T20:13:55.106Z,3.38
2022-10-01T20:16:25.965Z,3.10
2022-10-01T20:19:00.615Z,3.35
2022-10-01T20:21:41.365Z,2.88
2022-10-01T20:24:19.600Z,2.83
2022-10-01T20:26:50.772Z,3.15
2022-10-01T20:29:32.189Z,2.63
2022-10-01T20:32:07.069Z,3.53
2022-10-01T20:34:43.318Z,3.85
2022-10-01T20:37:24.680Z,3.47
2022-10-01T20:39:55.772Z,3.53
2022-10-01T20:42:30.440Z,3.30
2022-10-01T20:44:58.179Z,2.85
2022-10-01T20:47:31.159Z,2.88
2022-10-01T20:50:06.863Z,3.38
2022-10-01T20:52:44.685Z,3.55
2022-10-01T20:55:15.436Z,3.45
2022-10-01T20:57:46.858Z,3.25
2022-10-01T21:00:18.184Z,2.80
2022-10-01T21:02:49.743Z,3.22
2022-10-01T21:05:20.456Z,3.15
2022-10-01T21:07:52.451Z,2.90
2022-10-01T21:10:27.943Z,2.53
2022-10-01T21:13:01.516Z,3.25
2022-10-01T21:15:38.889Z,3.08
2022-10-01T21:18:11.536Z,2.92
2022-10-01T21:20:48.834Z,3.22
2022-10-01T21:23:31.151Z,2.88
2022-10-01T21:26:11.576Z,2.88
2022-10-01T21:28:55.906Z,3.88
2022-10-01T21:31:38.823Z,3.35
2022-10-01T21:34:12.474Z,3.72
2022-10-01T21:36:55.719Z,3.35
2022-10-01T21:39:31.092Z,3.38
2022-10-01T21:42:10.596Z,3.67
2022-10-01T21:45:05.346Z,3.53
2022-10-01T21:47:49.455Z,3.63
2022-10-01T21:50:25.659Z,3.92
2022-10-01T21:53:09.012Z,4.25
2022-10-01T21:55:53.008Z,3.55
2022-10-01T22:00:58.829Z,3.45
2022-10-01T22:03:34.059Z,4.30
2022-10-01T22:06:07.425Z,3.95
2022-10-01T22:08:51.007Z,3.53
2022-10-01T22:11:19.875Z,3.90
2022-10-01T22:13:51.335Z,4.05
2022-10-01T22:16:19.899Z,2.60
2022-10-01T22:18:51.694Z,3.15
2022-10-01T22:21:24.704Z,3.03
2022-10-01T22:23:56.121Z,3.00
2022-10-01T22:26:27.425Z,2.75
2022-10-01T22:28:55.404Z,3.22
2022-10-01T22:31:27.359Z,3.55
2022-10-01T22:34:01.422Z,2.85
2022-10-01T22:36:33.680Z,2.95
2022-10-01T22:39:04.971Z,2.65
2022-10-01T22:41:35.630Z,3.85
2022-10-01T22:44:06.322Z,3.67
2022-10-01T22:47:00.724Z,2.70
2022-10-01T22:49:39.926Z,3.40
2022-10-01T22:52:20.968Z,2.72
2022-10-01T22:54:56.483Z,2.92
2022-10-01T22:57:40.899Z,4.07
2022-10-01T23:00:09.548Z,3.03
2022-10-01T23:02:40.106Z,3.22
2022-10-01T23:05:32.445Z,3.08
2022-10-01T23:08:09.442Z,2.97
2022-10-01T23:10:45.507Z,2.63
2022-10-01T23:13:21.103Z,3.45
2022-10-01T23:15:55.917Z,3.25
2022-10-01T23:18:36.119Z,3.10
2022-10-01T23:21:21.000Z,2.63
2022-10-01T23:23:58.493Z,3.78
2022-10-01T23:26:35.141Z,2.83
2022-10-01T23:29:17.058Z,3.10
2022-10-01T23:31:53.880Z,2.72
2022-10-01T23:34:29.127Z,2.95
2022-10-01T23:37:13.005Z,3.38
2022-10-01T23:39:52.002Z,3.50
2022-10-01T23:42:33.495Z,3.45
2022-10-01T23:45:12.607Z,3.55
2022-10-01T23:47:45.438Z,3.42
2022-10-01T23:50:21.368Z,3.97
2022-10-01T23:52:57.334Z,3.05
2022-10-01T23:55:32.465Z,3.50
2022-10-01T23:58:03.402Z,3.42
